sensor_id;sensor_type;location;lat;lon;timestamp;P1;durP1;ratioP1;P2;durP2;ratioP2
9052;SDS011;4561;47.450;7.516;2023-02-22T00:01:50;6.73;;;6.03;;
9052;SDS011;4561;47.450;7.516;2023-02-22T00:05:29;8.03;;;6.00;;
9052;SDS011;4561;47.450;7.516;2023-02-22T00:08:50;7.63;;;5.60;;
9052;SDS011;4561;47.450;7.516;2023-02-22T00:12:13;8.67;;;6.60;;
9052;SDS011;4561;47.450;7.516;2023-02-22T00:15:34;10.13;;;6.23;;
9052;SDS011;4561;47.450;7.516;2023-02-22T00:19:00;10.10;;;6.80;;
9052;SDS011;4561;47.450;7.516;2023-02-22T00:22:20;10.10;;;6.93;;
9052;SDS011;4561;47.450;7.516;2023-02-22T00:25:44;10.30;;;6.40;;
9052;SDS011;4561;47.450;7.516;2023-02-22T00:29:05;9.17;;;7.07;;
9052;SDS011;4561;47.450;7.516;2023-02-22T00:32:27;7.67;;;6.27;;
9052;SDS011;4561;47.450;7.516;2023-02-22T00:35:51;9.77;;;7.00;;
9052;SDS011;4561;47.450;7.516;2023-02-22T00:39:14;10.50;;;6.17;;
9052;SDS011;4561;47.450;7.516;2023-02-22T00:42:40;9.23;;;6.37;;
9052;SDS011;4561;47.450;7.516;2023-02-22T00:46:05;13.40;;;7.20;;
9052;SDS011;4561;47.450;7.516;2023-02-22T00:49:29;11.37;;;7.10;;
9052;SDS011;4561;47.450;7.516;2023-02-22T00:52:53;8.37;;;7.00;;
9052;SDS011;4561;47.450;7.516;2023-02-22T00:56:15;10.67;;;7.07;;
9052;SDS011;4561;47.450;7.516;2023-02-22T00:59:35;11.73;;;7.73;;
9052;SDS011;4561;47.450;7.516;2023-02-22T01:02:56;11.80;;;7.50;;
9052;SDS011;4561;47.450;7.516;2023-02-22T01:06:16;12.07;;;7.40;;
9052;SDS011;4561;47.450;7.516;2023-02-22T01:09:37;10.80;;;7.40;;
9052;SDS011;4561;47.450;7.516;2023-02-22T01:12:58;8.73;;;7.37;;
9052;SDS011;4561;47.450;7.516;2023-02-22T01:16:20;11.37;;;6.87;;
9052;SDS011;4561;47.450;7.516;2023-02-22T01:19:42;10.00;;;6.77;;
9052;SDS011;4561;47.450;7.516;2023-02-22T01:23:03;8.63;;;7.10;;
9052;SDS011;4561;47.450;7.516;2023-02-22T01:26:25;11.80;;;7.50;;
9052;SDS011;4561;47.450;7.516;2023-02-22T01:29:47;10.23;;;6.70;;
9052;SDS011;4561;47.450;7.516;2023-02-22T01:33:09;10.00;;;7.33;;
9052;SDS011;4561;47.450;7.516;2023-02-22T01:36:31;12.83;;;7.90;;
9052;SDS011;4561;47.450;7.516;2023-02-22T01:39:54;10.17;;;7.40;;
9052;SDS011;4561;47.450;7.516;2023-02-22T01:46:43;10.23;;;7.53;;
9052;SDS011;4561;47.450;7.516;2023-02-22T01:50:05;9.63;;;7.10;;
9052;SDS011;4561;47.450;7.516;2023-02-22T01:53:33;10.23;;;7.03;;
9052;SDS011;4561;47.450;7.516;2023-02-22T01:56:59;11.77;;;7.53;;
9052;SDS011;4561;47.450;7.516;2023-02-22T02:00:25;9.80;;;7.00;;
9052;SDS011;4561;47.450;7.516;2023-02-22T02:03:46;8.87;;;7.27;;
9052;SDS011;4561;47.450;7.516;2023-02-22T02:07:09;9.90;;;6.83;;
9052;SDS011;4561;47.450;7.516;2023-02-22T02:10:31;12.67;;;6.97;;
9052;SDS011;4561;47.450;7.516;2023-02-22T02:13:52;9.83;;;6.87;;
9052;SDS011;4561;47.450;7.516;2023-02-22T02:17:14;11.47;;;7.70;;
9052;SDS011;4561;47.450;7.516;2023-02-22T02:39:02;8.03;;;5.90;;
9052;SDS011;4561;47.450;7.516;2023-02-22T02:42:29;9.43;;;7.43;;
9052;SDS011;4561;47.450;7.516;2023-02-22T02:49:47;9.67;;;6.57;;
9052;SDS011;4561;47.450;7.516;2023-02-22T02:53:17;11.30;;;7.33;;
9052;SDS011;4561;47.450;7.516;2023-02-22T02:56:41;10.43;;;6.57;;
9052;SDS011;4561;47.450;7.516;2023-02-22T03:00:04;9.23;;;6.73;;
9052;SDS011;4561;47.450;7.516;2023-02-22T03:07:28;9.10;;;6.03;;
9052;SDS011;4561;47.450;7.516;2023-02-22T03:11:14;8.73;;;6.80;;
9052;SDS011;4561;47.450;7.516;2023-02-22T03:14:45;11.07;;;7.50;;
9052;SDS011;4561;47.450;7.516;2023-02-22T03:18:27;10.90;;;6.80;;
9052;SDS011;4561;47.450;7.516;2023-02-22T03:21:53;8.73;;;6.60;;
9052;SDS011;4561;47.450;7.516;2023-02-22T03:25:18;10.13;;;5.60;;
9052;SDS011;4561;47.450;7.516;2023-02-22T03:28:41;6.13;;;4.70;;
9052;SDS011;4561;47.450;7.516;2023-02-22T03:32:07;5.70;;;4.17;;
9052;SDS011;4561;47.450;7.516;2023-02-22T03:35:30;6.97;;;6.03;;
9052;SDS011;4561;47.450;7.516;2023-02-22T03:38:53;9.13;;;6.87;;
9052;SDS011;4561;47.450;7.516;2023-02-22T03:42:18;8.47;;;7.60;;
9052;SDS011;4561;47.450;7.516;2023-02-22T03:45:42;13.67;;;8.10;;
9052;SDS011;4561;47.450;7.516;2023-02-22T03:49:10;11.83;;;7.63;;
9052;SDS011;4561;47.450;7.516;2023-02-22T03:52:36;10.40;;;7.43;;
9052;SDS011;4561;47.450;7.516;2023-02-22T03:55:56;9.07;;;6.57;;
9052;SDS011;4561;47.450;7.516;2023-02-22T03:59:18;11.47;;;8.10;;
9052;SDS011;4561;47.450;7.516;2023-02-22T04:02:45;10.13;;;8.20;;
9052;SDS011;4561;47.450;7.516;2023-02-22T04:06:05;11.40;;;6.93;;
9052;SDS011;4561;47.450;7.516;2023-02-22T04:09:28;7.40;;;6.60;;
9052;SDS011;4561;47.450;7.516;2023-02-22T04:12:48;6.30;;;5.70;;
9052;SDS011;4561;47.450;7.516;2023-02-22T04:16:09;6.97;;;5.07;;
9052;SDS011;4561;47.450;7.516;2023-02-22T04:19:32;5.83;;;4.63;;
9052;SDS011;4561;47.450;7.516;2023-02-22T04:22:54;9.43;;;6.60;;
9052;SDS011;4561;47.450;7.516;2023-02-22T04:26:15;10.97;;;6.30;;
9052;SDS011;4561;47.450;7.516;2023-02-22T04:29:36;11.03;;;7.20;;
9052;SDS011;4561;47.450;7.516;2023-02-22T04:32:58;8.13;;;5.40;;
9052;SDS011;4561;47.450;7.516;2023-02-22T04:36:21;9.20;;;6.47;;
9052;SDS011;4561;47.450;7.516;2023-02-22T04:39:44;7.37;;;5.83;;
9052;SDS011;4561;47.450;7.516;2023-02-22T04:43:04;10.03;;;6.50;;
9052;SDS011;4561;47.450;7.516;2023-02-22T04:46:24;8.10;;;5.17;;
9052;SDS011;4561;47.450;7.516;2023-02-22T04:49:45;8.07;;;4.83;;
9052;SDS011;4561;47.450;7.516;2023-02-22T04:53:05;11.03;;;5.27;;
9052;SDS011;4561;47.450;7.516;2023-02-22T04:56:29;5.77;;;4.23;;
9052;SDS011;4561;47.450;7.516;2023-02-22T04:59:52;14.10;;;9.13;;
9052;SDS011;4561;47.450;7.516;2023-02-22T05:03:15;11.43;;;7.30;;
9052;SDS011;4561;47.450;7.516;2023-02-22T05:06:35;8.30;;;5.20;;
9052;SDS011;4561;47.450;7.516;2023-02-22T05:09:56;6.47;;;4.50;;
9052;SDS011;4561;47.450;7.516;2023-02-22T05:13:16;4.63;;;4.07;;
9052;SDS011;4561;47.450;7.516;2023-02-22T05:16:36;6.57;;;5.30;;
9052;SDS011;4561;47.450;7.516;2023-02-22T05:19:57;6.30;;;4.07;;
9052;SDS011;4561;47.450;7.516;2023-02-22T05:23:20;11.07;;;5.80;;
9052;SDS011;4561;47.450;7.516;2023-02-22T05:26:41;8.70;;;5.87;;
9052;SDS011;4561;47.450;7.516;2023-02-22T05:30:04;8.87;;;6.10;;
9052;SDS011;4561;47.450;7.516;2023-02-22T05:33:28;11.33;;;8.07;;
9052;SDS011;4561;47.450;7.516;2023-02-22T05:36:48;9.57;;;7.37;;
9052;SDS011;4561;47.450;7.516;2023-02-22T05:40:11;10.40;;;6.87;;
9052;SDS011;4561;47.450;7.516;2023-02-22T05:43:33;10.40;;;6.67;;
9052;SDS011;4561;47.450;7.516;2023-02-22T05:46:53;8.20;;;6.27;;
9052;SDS011;4561;47.450;7.516;2023-02-22T05:50:14;14.73;;;7.50;;
9052;SDS011;4561;47.450;7.516;2023-02-22T05:53:39;10.73;;;7.60;;
9052;SDS011;4561;47.450;7.516;2023-02-22T05:56:59;10.80;;;7.07;;
9052;SDS011;4561;47.450;7.516;2023-02-22T06:00:21;9.53;;;6.70;;
9052;SDS011;4561;47.450;7.516;2023-02-22T06:03:47;7.40;;;6.43;;
9052;SDS011;4561;47.450;7.516;2023-02-22T06:07:12;14.00;;;7.07;;
9052;SDS011;4561;47.450;7.516;2023-02-22T06:10:35;9.97;;;7.37;;
9052;SDS011;4561;47.450;7.516;2023-02-22T06:13:56;9.83;;;6.23;;
9052;SDS011;4561;47.450;7.516;2023-02-22T06:17:17;7.17;;;6.17;;
9052;SDS011;4561;47.450;7.516;2023-02-22T06:20:38;8.13;;;6.43;;
9052;SDS011;4561;47.450;7.516;2023-02-22T06:23:58;9.77;;;6.33;;
9052;SDS011;4561;47.450;7.516;2023-02-22T06:27:23;8.53;;;6.00;;
9052;SDS011;4561;47.450;7.516;2023-02-22T06:30:46;6.33;;;5.57;;
9052;SDS011;4561;47.450;7.516;2023-02-22T06:34:09;8.67;;;6.23;;
9052;SDS011;4561;47.450;7.516;2023-02-22T06:37:30;10.57;;;7.20;;
9052;SDS011;4561;47.450;7.516;2023-02-22T06:40:50;7.90;;;5.73;;
9052;SDS011;4561;47.450;7.516;2023-02-22T06:44:11;7.80;;;5.67;;
9052;SDS011;4561;47.450;7.516;2023-02-22T06:47:34;6.60;;;5.90;;
9052;SDS011;4561;47.450;7.516;2023-02-22T06:51:00;6.20;;;5.60;;
9052;SDS011;4561;47.450;7.516;2023-02-22T06:54:20;6.83;;;4.80;;
9052;SDS011;4561;47.450;7.516;2023-02-22T06:57:43;7.67;;;6.33;;
9052;SDS011;4561;47.450;7.516;2023-02-22T07:01:03;9.27;;;5.77;;
9052;SDS011;4561;47.450;7.516;2023-02-22T07:04:26;8.50;;;5.60;;
9052;SDS011;4561;47.450;7.516;2023-02-22T07:07:50;8.97;;;6.83;;
9052;SDS011;4561;47.450;7.516;2023-02-22T07:11:17;8.30;;;6.70;;
9052;SDS011;4561;47.450;7.516;2023-02-22T07:14:37;6.90;;;6.20;;
9052;SDS011;4561;47.450;7.516;2023-02-22T07:17:58;7.93;;;5.63;;
9052;SDS011;4561;47.450;7.516;2023-02-22T07:21:18;10.87;;;6.10;;
9052;SDS011;4561;47.450;7.516;2023-02-22T07:24:39;7.27;;;6.00;;
9052;SDS011;4561;47.450;7.516;2023-02-22T07:28:00;9.27;;;5.10;;
9052;SDS011;4561;47.450;7.516;2023-02-22T07:31:25;9.73;;;4.90;;
9052;SDS011;4561;47.450;7.516;2023-02-22T07:34:45;6.80;;;5.10;;
9052;SDS011;4561;47.450;7.516;2023-02-22T07:38:06;6.17;;;5.17;;
9052;SDS011;4561;47.450;7.516;2023-02-22T07:41:29;7.83;;;5.23;;
9052;SDS011;4561;47.450;7.516;2023-02-22T07:44:52;6.07;;;5.07;;
9052;SDS011;4561;47.450;7.516;2023-02-22T07:48:13;7.83;;;4.97;;
9052;SDS011;4561;47.450;7.516;2023-02-22T07:51:34;7.67;;;5.20;;
9052;SDS011;4561;47.450;7.516;2023-02-22T07:54:54;5.73;;;4.70;;
9052;SDS011;4561;47.450;7.516;2023-02-22T07:58:16;5.53;;;4.50;;
9052;SDS011;4561;47.450;7.516;2023-02-22T08:01:40;7.97;;;4.80;;
9052;SDS011;4561;47.450;7.516;2023-02-22T08:05:00;6.63;;;4.83;;
9052;SDS011;4561;47.450;7.516;2023-02-22T08:08:21;9.10;;;6.30;;
9052;SDS011;4561;47.450;7.516;2023-02-22T08:11:44;6.47;;;5.43;;
9052;SDS011;4561;47.450;7.516;2023-02-22T08:15:05;7.43;;;5.87;;
9052;SDS011;4561;47.450;7.516;2023-02-22T08:18:27;7.80;;;5.60;;
9052;SDS011;4561;47.450;7.516;2023-02-22T08:21:47;9.93;;;6.20;;
9052;SDS011;4561;47.450;7.516;2023-02-22T08:25:11;6.73;;;5.10;;
9052;SDS011;4561;47.450;7.516;2023-02-22T08:28:34;6.40;;;5.33;;
9052;SDS011;4561;47.450;7.516;2023-02-22T08:31:57;8.00;;;5.73;;
9052;SDS011;4561;47.450;7.516;2023-02-22T08:35:20;8.93;;;6.50;;
9052;SDS011;4561;47.450;7.516;2023-02-22T08:38:42;9.33;;;7.23;;
9052;SDS011;4561;47.450;7.516;2023-02-22T08:42:05;7.63;;;6.63;;
9052;SDS011;4561;47.450;7.516;2023-02-22T08:45:29;7.40;;;5.90;;
9052;SDS011;4561;47.450;7.516;2023-02-22T08:48:54;7.97;;;6.20;;
9052;SDS011;4561;47.450;7.516;2023-02-22T08:52:14;8.70;;;5.40;;
9052;SDS011;4561;47.450;7.516;2023-02-22T08:55:35;7.27;;;5.47;;
9052;SDS011;4561;47.450;7.516;2023-02-22T08:58:59;7.83;;;5.03;;
9052;SDS011;4561;47.450;7.516;2023-02-22T09:02:20;7.03;;;5.10;;
9052;SDS011;4561;47.450;7.516;2023-02-22T09:05:41;6.67;;;5.97;;
9052;SDS011;4561;47.450;7.516;2023-02-22T09:09:05;7.23;;;5.50;;
9052;SDS011;4561;47.450;7.516;2023-02-22T09:12:25;8.73;;;5.60;;
9052;SDS011;4561;47.450;7.516;2023-02-22T09:15:48;6.67;;;5.40;;
9052;SDS011;4561;47.450;7.516;2023-02-22T09:19:08;9.80;;;6.37;;
9052;SDS011;4561;47.450;7.516;2023-02-22T09:22:29;7.33;;;6.60;;
9052;SDS011;4561;47.450;7.516;2023-02-22T09:25:49;9.60;;;6.43;;
9052;SDS011;4561;47.450;7.516;2023-02-22T09:29:17;9.07;;;5.43;;
9052;SDS011;4561;47.450;7.516;2023-02-22T09:32:41;5.73;;;4.87;;
9052;SDS011;4561;47.450;7.516;2023-02-22T09:36:04;7.70;;;5.07;;
9052;SDS011;4561;47.450;7.516;2023-02-22T09:39:27;5.97;;;4.83;;
9052;SDS011;4561;47.450;7.516;2023-02-22T09:42:49;6.17;;;4.93;;
9052;SDS011;4561;47.450;7.516;2023-02-22T09:46:32;6.60;;;4.50;;
9052;SDS011;4561;47.450;7.516;2023-02-22T09:50:02;10.57;;;5.00;;
9052;SDS011;4561;47.450;7.516;2023-02-22T09:53:31;7.97;;;5.20;;
9052;SDS011;4561;47.450;7.516;2023-02-22T09:56:55;7.90;;;5.03;;
9052;SDS011;4561;47.450;7.516;2023-02-22T10:00:21;10.67;;;5.13;;
9052;SDS011;4561;47.450;7.516;2023-02-22T10:07:33;7.80;;;4.77;;
9052;SDS011;4561;47.450;7.516;2023-02-22T10:11:00;8.03;;;5.20;;
9052;SDS011;4561;47.450;7.516;2023-02-22T10:25:33;6.73;;;4.60;;
9052;SDS011;4561;47.450;7.516;2023-02-22T10:28:58;8.03;;;4.73;;
9052;SDS011;4561;47.450;7.516;2023-02-22T10:32:27;10.60;;;5.10;;
9052;SDS011;4561;47.450;7.516;2023-02-22T10:35:58;7.17;;;5.33;;
9052;SDS011;4561;47.450;7.516;2023-02-22T10:42:42;8.00;;;5.37;;
9052;SDS011;4561;47.450;7.516;2023-02-22T10:46:03;8.97;;;5.50;;
9052;SDS011;4561;47.450;7.516;2023-02-22T10:49:24;8.73;;;5.73;;
9052;SDS011;4561;47.450;7.516;2023-02-22T10:52:48;9.50;;;5.53;;
9052;SDS011;4561;47.450;7.516;2023-02-22T10:56:17;6.47;;;5.25;;
9052;SDS011;4561;47.450;7.516;2023-02-22T10:59:42;6.85;;;5.15;;
9052;SDS011;4561;47.450;7.516;2023-02-22T11:03:21;6.50;;;5.40;;
9052;SDS011;4561;47.450;7.516;2023-02-22T11:06:44;9.03;;;5.50;;
9052;SDS011;4561;47.450;7.516;2023-02-22T11:10:06;10.03;;;6.10;;
9052;SDS011;4561;47.450;7.516;2023-02-22T11:16:57;11.20;;;6.20;;
9052;SDS011;4561;47.450;7.516;2023-02-22T11:20:27;9.83;;;6.47;;
9052;SDS011;4561;47.450;7.516;2023-02-22T11:24:03;6.77;;;5.87;;
9052;SDS011;4561;47.450;7.516;2023-02-22T11:27:32;7.60;;;6.13;;
9052;SDS011;4561;47.450;7.516;2023-02-22T11:31:43;6.83;;;6.10;;
9052;SDS011;4561;47.450;7.516;2023-02-22T11:35:16;6.47;;;5.80;;
9052;SDS011;4561;47.450;7.516;2023-02-22T11:38:56;9.37;;;5.73;;
9052;SDS011;4561;47.450;7.516;2023-02-22T11:49:19;8.60;;;7.70;;
9052;SDS011;4561;47.450;7.516;2023-02-22T11:52:43;10.60;;;8.00;;
9052;SDS011;4561;47.450;7.516;2023-02-22T11:56:12;9.03;;;7.97;;
9052;SDS011;4561;47.450;7.516;2023-02-22T11:59:39;9.03;;;7.37;;
9052;SDS011;4561;47.450;7.516;2023-02-22T12:17:25;9.77;;;8.20;;
9052;SDS011;4561;47.450;7.516;2023-02-22T12:20:59;9.17;;;8.20;;
9052;SDS011;4561;47.450;7.516;2023-02-22T12:24:26;9.90;;;8.90;;
9052;SDS011;4561;47.450;7.516;2023-02-22T12:27:53;11.53;;;8.97;;
9052;SDS011;4561;47.450;7.516;2023-02-22T12:35:01;13.67;;;10.53;;
9052;SDS011;4561;47.450;7.516;2023-02-22T12:38:44;12.07;;;10.30;;
9052;SDS011;4561;47.450;7.516;2023-02-22T12:42:12;12.63;;;10.43;;
9052;SDS011;4561;47.450;7.516;2023-02-22T12:45:44;11.80;;;10.50;;
9052;SDS011;4561;47.450;7.516;2023-02-22T12:53:13;15.77;;;13.00;;
9052;SDS011;4561;47.450;7.516;2023-02-22T12:56:54;14.33;;;11.73;;
9052;SDS011;4561;47.450;7.516;2023-02-22T13:00:19;12.87;;;11.60;;
9052;SDS011;4561;47.450;7.516;2023-02-22T13:03:45;14.47;;;12.17;;
9052;SDS011;4561;47.450;7.516;2023-02-22T13:07:20;14.73;;;11.57;;
9052;SDS011;4561;47.450;7.516;2023-02-22T13:25:28;12.87;;;11.17;;
9052;SDS011;4561;47.450;7.516;2023-02-22T13:36:21;10.83;;;9.30;;
9052;SDS011;4561;47.450;7.516;2023-02-22T13:58:06;16.30;;;14.13;;
9052;SDS011;4561;47.450;7.516;2023-02-22T14:05:48;14.73;;;12.70;;
9052;SDS011;4561;47.450;7.516;2023-02-22T14:09:06;14.73;;;13.20;;
9052;SDS011;4561;47.450;7.516;2023-02-22T14:19:17;14.43;;;12.63;;
9052;SDS011;4561;47.450;7.516;2023-02-22T14:22:42;14.47;;;13.00;;
9052;SDS011;4561;47.450;7.516;2023-02-22T14:30:00;16.87;;;14.37;;
9052;SDS011;4561;47.450;7.516;2023-02-22T14:33:48;16.97;;;15.00;;
9052;SDS011;4561;47.450;7.516;2023-02-22T14:37:13;17.60;;;15.80;;
9052;SDS011;4561;47.450;7.516;2023-02-22T14:40:36;19.57;;;16.00;;
9052;SDS011;4561;47.450;7.516;2023-02-22T14:43:56;18.60;;;16.60;;
9052;SDS011;4561;47.450;7.516;2023-02-22T14:47:21;22.47;;;16.07;;
9052;SDS011;4561;47.450;7.516;2023-02-22T15:01:31;19.63;;;14.60;;
9052;SDS011;4561;47.450;7.516;2023-02-22T15:04:54;21.73;;;14.83;;
9052;SDS011;4561;47.450;7.516;2023-02-22T15:08:16;16.47;;;14.83;;
9052;SDS011;4561;47.450;7.516;2023-02-22T15:11:47;19.50;;;15.23;;
9052;SDS011;4561;47.450;7.516;2023-02-22T15:15:11;19.87;;;15.00;;
9052;SDS011;4561;47.450;7.516;2023-02-22T15:18:41;16.37;;;13.83;;
9052;SDS011;4561;47.450;7.516;2023-02-22T15:22:05;18.80;;;15.10;;
9052;SDS011;4561;47.450;7.516;2023-02-22T15:25:40;17.67;;;14.47;;
9052;SDS011;4561;47.450;7.516;2023-02-22T15:29:12;17.27;;;15.50;;
9052;SDS011;4561;47.450;7.516;2023-02-22T15:32:38;21.03;;;15.03;;
9052;SDS011;4561;47.450;7.516;2023-02-22T15:35:59;18.33;;;15.77;;
9052;SDS011;4561;47.450;7.516;2023-02-22T15:39:24;19.67;;;16.30;;
9052;SDS011;4561;47.450;7.516;2023-02-22T15:42:51;20.03;;;16.57;;
9052;SDS011;4561;47.450;7.516;2023-02-22T15:46:12;20.80;;;15.67;;
9052;SDS011;4561;47.450;7.516;2023-02-22T15:49:33;21.60;;;16.73;;
9052;SDS011;4561;47.450;7.516;2023-02-22T15:52:57;23.33;;;15.97;;
9052;SDS011;4561;47.450;7.516;2023-02-22T15:56:23;22.77;;;16.70;;
9052;SDS011;4561;47.450;7.516;2023-02-22T15:59:51;19.43;;;17.03;;
9052;SDS011;4561;47.450;7.516;2023-02-22T16:03:13;21.67;;;16.80;;
9052;SDS011;4561;47.450;7.516;2023-02-22T16:06:39;19.80;;;16.20;;
9052;SDS011;4561;47.450;7.516;2023-02-22T16:10:00;18.73;;;16.07;;
9052;SDS011;4561;47.450;7.516;2023-02-22T16:13:28;17.70;;;15.83;;
9052;SDS011;4561;47.450;7.516;2023-02-22T16:17:37;25.90;;;16.83;;
9052;SDS011;4561;47.450;7.516;2023-02-22T16:20:44;19.17;;;16.97;;
9052;SDS011;4561;47.450;7.516;2023-02-22T16:24:05;20.50;;;18.20;;
9052;SDS011;4561;47.450;7.516;2023-02-22T16:27:25;22.53;;;19.63;;
9052;SDS011;4561;47.450;7.516;2023-02-22T16:30:54;21.00;;;18.30;;
9052;SDS011;4561;47.450;7.516;2023-02-22T16:34:17;23.10;;;19.13;;
9052;SDS011;4561;47.450;7.516;2023-02-22T16:37:41;21.33;;;18.97;;
9052;SDS011;4561;47.450;7.516;2023-02-22T16:41:01;24.00;;;18.67;;
9052;SDS011;4561;47.450;7.516;2023-02-22T16:44:22;22.30;;;17.40;;
9052;SDS011;4561;47.450;7.516;2023-02-22T16:47:48;21.33;;;18.77;;
9052;SDS011;4561;47.450;7.516;2023-02-22T16:51:16;22.70;;;18.20;;
9052;SDS011;4561;47.450;7.516;2023-02-22T16:54:45;23.63;;;19.03;;
9052;SDS011;4561;47.450;7.516;2023-02-22T16:58:07;24.80;;;19.00;;
9052;SDS011;4561;47.450;7.516;2023-02-22T17:01:30;23.97;;;18.40;;
9052;SDS011;4561;47.450;7.516;2023-02-22T17:04:54;22.37;;;18.80;;
9052;SDS011;4561;47.450;7.516;2023-02-22T17:08:15;24.10;;;20.93;;
9052;SDS011;4561;47.450;7.516;2023-02-22T17:11:36;27.07;;;24.13;;
9052;SDS011;4561;47.450;7.516;2023-02-22T17:14:56;23.67;;;19.23;;
9052;SDS011;4561;47.450;7.516;2023-02-22T17:18:18;24.40;;;18.40;;
9052;SDS011;4561;47.450;7.516;2023-02-22T17:21:41;21.73;;;19.23;;
9052;SDS011;4561;47.450;7.516;2023-02-22T17:25:08;21.57;;;19.27;;
9052;SDS011;4561;47.450;7.516;2023-02-22T17:28:37;24.63;;;21.07;;
9052;SDS011;4561;47.450;7.516;2023-02-22T17:31:59;24.23;;;20.67;;
9052;SDS011;4561;47.450;7.516;2023-02-22T17:35:20;22.47;;;19.70;;
9052;SDS011;4561;47.450;7.516;2023-02-22T17:38:42;23.27;;;20.30;;
9052;SDS011;4561;47.450;7.516;2023-02-22T17:42:03;21.33;;;18.50;;
9052;SDS011;4561;47.450;7.516;2023-02-22T17:45:23;26.63;;;20.17;;
9052;SDS011;4561;47.450;7.516;2023-02-22T17:48:44;26.93;;;21.03;;
9052;SDS011;4561;47.450;7.516;2023-02-22T17:52:07;26.87;;;20.70;;
9052;SDS011;4561;47.450;7.516;2023-02-22T17:55:28;23.13;;;20.67;;
9052;SDS011;4561;47.450;7.516;2023-02-22T17:58:50;27.80;;;20.83;;
9052;SDS011;4561;47.450;7.516;2023-02-22T18:02:12;25.00;;;21.37;;
9052;SDS011;4561;47.450;7.516;2023-02-22T18:05:41;24.00;;;21.13;;
9052;SDS011;4561;47.450;7.516;2023-02-22T18:09:05;24.37;;;21.53;;
9052;SDS011;4561;47.450;7.516;2023-02-22T18:12:31;29.53;;;22.10;;
9052;SDS011;4561;47.450;7.516;2023-02-22T18:15:57;24.00;;;21.30;;
9052;SDS011;4561;47.450;7.516;2023-02-22T18:19:21;28.57;;;21.90;;
9052;SDS011;4561;47.450;7.516;2023-02-22T18:22:42;25.37;;;22.53;;
9052;SDS011;4561;47.450;7.516;2023-02-22T18:26:03;28.17;;;22.90;;
9052;SDS011;4561;47.450;7.516;2023-02-22T18:29:26;26.63;;;21.17;;
9052;SDS011;4561;47.450;7.516;2023-02-22T18:32:51;24.73;;;20.40;;
9052;SDS011;4561;47.450;7.516;2023-02-22T18:36:12;25.13;;;22.43;;
9052;SDS011;4561;47.450;7.516;2023-02-22T18:39:33;31.30;;;23.00;;
9052;SDS011;4561;47.450;7.516;2023-02-22T18:42:59;30.80;;;24.50;;
9052;SDS011;4561;47.450;7.516;2023-02-22T18:46:20;25.93;;;22.40;;
9052;SDS011;4561;47.450;7.516;2023-02-22T18:49:41;27.50;;;22.87;;
9052;SDS011;4561;47.450;7.516;2023-02-22T18:53:01;40.43;;;29.63;;
9052;SDS011;4561;47.450;7.516;2023-02-22T18:56:24;25.47;;;21.83;;
9052;SDS011;4561;47.450;7.516;2023-02-22T18:59:48;24.67;;;20.83;;
9052;SDS011;4561;47.450;7.516;2023-02-22T19:03:09;21.93;;;19.10;;
9052;SDS011;4561;47.450;7.516;2023-02-22T19:06:31;23.67;;;18.13;;
9052;SDS011;4561;47.450;7.516;2023-02-22T19:09:53;21.17;;;15.93;;
9052;SDS011;4561;47.450;7.516;2023-02-22T19:13:14;15.70;;;14.07;;
9052;SDS011;4561;47.450;7.516;2023-02-22T19:16:35;18.27;;;15.07;;
9052;SDS011;4561;47.450;7.516;2023-02-22T19:19:56;22.93;;;15.00;;
9052;SDS011;4561;47.450;7.516;2023-02-22T19:23:21;14.80;;;12.93;;
9052;SDS011;4561;47.450;7.516;2023-02-22T19:26:41;14.03;;;11.77;;
9052;SDS011;4561;47.450;7.516;2023-02-22T19:30:10;17.63;;;11.97;;
9052;SDS011;4561;47.450;7.516;2023-02-22T19:33:32;13.10;;;11.00;;
9052;SDS011;4561;47.450;7.516;2023-02-22T19:36:52;14.33;;;10.93;;
9052;SDS011;4561;47.450;7.516;2023-02-22T19:40:17;18.27;;;13.03;;
9052;SDS011;4561;47.450;7.516;2023-02-22T19:43:37;17.27;;;14.90;;
9052;SDS011;4561;47.450;7.516;2023-02-22T19:47:00;19.90;;;17.10;;
9052;SDS011;4561;47.450;7.516;2023-02-22T19:50:21;30.87;;;24.30;;
9052;SDS011;4561;47.450;7.516;2023-02-22T19:53:44;25.53;;;22.63;;
9052;SDS011;4561;47.450;7.516;2023-02-22T19:57:05;25.30;;;20.50;;
9052;SDS011;4561;47.450;7.516;2023-02-22T20:00:25;25.73;;;19.67;;
9052;SDS011;4561;47.450;7.516;2023-02-22T20:03:47;23.13;;;18.93;;
9052;SDS011;4561;47.450;7.516;2023-02-22T20:07:13;19.07;;;14.40;;
9052;SDS011;4561;47.450;7.516;2023-02-22T20:10:36;18.57;;;12.87;;
9052;SDS011;4561;47.450;7.516;2023-02-22T20:13:59;15.30;;;12.50;;
9052;SDS011;4561;47.450;7.516;2023-02-22T20:17:21;17.83;;;12.67;;
9052;SDS011;4561;47.450;7.516;2023-02-22T20:20:42;19.73;;;15.37;;
9052;SDS011;4561;47.450;7.516;2023-02-22T20:24:04;16.20;;;13.43;;
9052;SDS011;4561;47.450;7.516;2023-02-22T20:27:26;18.20;;;14.43;;
9052;SDS011;4561;47.450;7.516;2023-02-22T20:30:50;16.30;;;14.17;;
9052;SDS011;4561;47.450;7.516;2023-02-22T20:34:12;19.73;;;12.23;;
9052;SDS011;4561;47.450;7.516;2023-02-22T20:37:34;17.23;;;11.93;;
9052;SDS011;4561;47.450;7.516;2023-02-22T20:40:57;17.60;;;13.73;;
9052;SDS011;4561;47.450;7.516;2023-02-22T20:44:19;16.50;;;14.37;;
9052;SDS011;4561;47.450;7.516;2023-02-22T20:47:40;20.33;;;16.50;;
9052;SDS011;4561;47.450;7.516;2023-02-22T20:51:07;20.00;;;17.33;;
9052;SDS011;4561;47.450;7.516;2023-02-22T20:54:29;22.13;;;19.20;;
9052;SDS011;4561;47.450;7.516;2023-02-22T20:57:53;24.30;;;19.27;;
9052;SDS011;4561;47.450;7.516;2023-02-22T21:01:16;22.10;;;18.93;;
9052;SDS011;4561;47.450;7.516;2023-02-22T21:04:38;23.87;;;19.77;;
9052;SDS011;4561;47.450;7.516;2023-02-22T21:07:58;23.57;;;19.97;;
9052;SDS011;4561;47.450;7.516;2023-02-22T21:11:21;23.70;;;20.23;;
9052;SDS011;4561;47.450;7.516;2023-02-22T21:14:43;21.27;;;15.67;;
9052;SDS011;4561;47.450;7.516;2023-02-22T21:18:05;18.23;;;14.27;;
9052;SDS011;4561;47.450;7.516;2023-02-22T21:21:26;17.57;;;14.87;;
9052;SDS011;4561;47.450;7.516;2023-02-22T21:24:52;19.77;;;16.53;;
9052;SDS011;4561;47.450;7.516;2023-02-22T21:28:15;22.23;;;18.83;;
9052;SDS011;4561;47.450;7.516;2023-02-22T21:31:35;24.30;;;19.93;;
9052;SDS011;4561;47.450;7.516;2023-02-22T21:34:58;29.60;;;22.33;;
9052;SDS011;4561;47.450;7.516;2023-02-22T21:38:18;26.50;;;23.13;;
9052;SDS011;4561;47.450;7.516;2023-02-22T21:41:41;27.63;;;21.43;;
9052;SDS011;4561;47.450;7.516;2023-02-22T21:45:04;28.33;;;22.47;;
9052;SDS011;4561;47.450;7.516;2023-02-22T21:48:27;26.07;;;21.70;;
9052;SDS011;4561;47.450;7.516;2023-02-22T21:51:48;24.37;;;21.53;;
9052;SDS011;4561;47.450;7.516;2023-02-22T21:55:10;24.17;;;19.37;;
9052;SDS011;4561;47.450;7.516;2023-02-22T21:58:30;19.97;;;17.60;;
9052;SDS011;4561;47.450;7.516;2023-02-22T22:01:52;20.53;;;17.03;;
9052;SDS011;4561;47.450;7.516;2023-02-22T22:05:19;19.13;;;15.73;;
9052;SDS011;4561;47.450;7.516;2023-02-22T22:08:50;21.53;;;16.73;;
9052;SDS011;4561;47.450;7.516;2023-02-22T22:12:12;22.33;;;17.43;;
9052;SDS011;4561;47.450;7.516;2023-02-22T22:15:35;21.93;;;16.10;;
9052;SDS011;4561;47.450;7.516;2023-02-22T22:18:57;19.20;;;15.87;;
9052;SDS011;4561;47.450;7.516;2023-02-22T22:22:20;22.10;;;15.63;;
9052;SDS011;4561;47.450;7.516;2023-02-22T22:25:43;18.43;;;16.23;;
9052;SDS011;4561;47.450;7.516;2023-02-22T22:29:04;20.73;;;15.87;;
9052;SDS011;4561;47.450;7.516;2023-02-22T22:32:24;20.37;;;16.53;;
9052;SDS011;4561;47.450;7.516;2023-02-22T22:35:48;21.27;;;17.40;;
9052;SDS011;4561;47.450;7.516;2023-02-22T22:39:08;20.37;;;16.73;;
9052;SDS011;4561;47.450;7.516;2023-02-22T22:42:32;23.57;;;18.47;;
9052;SDS011;4561;47.450;7.516;2023-02-22T22:45:52;21.37;;;17.83;;
9052;SDS011;4561;47.450;7.516;2023-02-22T22:49:12;22.17;;;17.70;;
9052;SDS011;4561;47.450;7.516;2023-02-22T22:52:33;21.57;;;16.13;;
9052;SDS011;4561;47.450;7.516;2023-02-22T22:55:54;19.40;;;16.77;;
9052;SDS011;4561;47.450;7.516;2023-02-22T22:59:18;21.53;;;17.73;;
9052;SDS011;4561;47.450;7.516;2023-02-22T23:02:38;20.47;;;17.03;;
9052;SDS011;4561;47.450;7.516;2023-02-22T23:05:59;22.37;;;19.97;;
9052;SDS011;4561;47.450;7.516;2023-02-22T23:09:24;24.40;;;17.57;;
9052;SDS011;4561;47.450;7.516;2023-02-22T23:12:46;24.03;;;17.47;;